sensor_id;sensor_type;location;lat;lon;timestamp;pressure;altitude;pressure_sealevel;temperature;humidity
46379;BME280;32084;42.254;22.744;2023-02-14T00:00:55;96655.69;;;-2.92;73.64
46379;BME280;32084;42.254;22.744;2023-02-14T00:03:21;96657.97;;;-3.13;73.80
46379;BME280;32084;42.254;22.744;2023-02-14T00:05:47;96657.38;;;-3.23;73.58
46379;BME280;32084;42.254;22.744;2023-02-14T00:08:14;96654.91;;;-3.27;74.44
46379;BME280;32084;42.254;22.744;2023-02-14T00:10:40;96663.72;;;-3.31;75.16
46379;BME280;32084;42.254;22.744;2023-02-14T00:13:06;96661.53;;;-3.14;74.56
46379;BME280;32084;42.254;22.744;2023-02-14T00:15:32;96651.47;;;-2.98;74.87
46379;BME280;32084;42.254;22.744;2023-02-14T00:17:58;96650.41;;;-2.91;73.37
46379;BME280;32084;42.254;22.744;2023-02-14T00:20:25;96654.66;;;-3.18;73.73
46379;BME280;32084;42.254;22.744;2023-02-14T00:22:51;96655.50;;;-3.18;74.39
46379;BME280;32084;42.254;22.744;2023-02-14T00:25:17;96657.31;;;-3.20;74.06
46379;BME280;32084;42.254;22.744;2023-02-14T00:27:43;96661.94;;;-3.29;73.85
46379;BME280;32084;42.254;22.744;2023-02-14T00:30:10;96655.00;;;-3.32;74.07
46379;BME280;32084;42.254;22.744;2023-02-14T00:32:40;96651.28;;;-3.23;73.77
46379;BME280;32084;42.254;22.744;2023-02-14T00:35:07;96653.97;;;-3.26;74.07
46379;BME280;32084;42.254;22.744;2023-02-14T00:37:33;96658.31;;;-3.25;73.93
46379;BME280;32084;42.254;22.744;2023-02-14T00:39:59;96648.84;;;-3.29;74.10
46379;BME280;32084;42.254;22.744;2023-02-14T00:42:25;96652.25;;;-3.26;73.78
46379;BME280;32084;42.254;22.744;2023-02-14T00:44:51;96658.50;;;-3.31;73.60
46379;BME280;32084;42.254;22.744;2023-02-14T00:47:17;96652.47;;;-3.35;74.03
46379;BME280;32084;42.254;22.744;2023-02-14T00:49:43;96647.16;;;-3.66;73.88
46379;BME280;32084;42.254;22.744;2023-02-14T00:52:09;96648.16;;;-3.72;75.06
46379;BME280;32084;42.254;22.744;2023-02-14T00:54:35;96647.63;;;-3.49;74.12
46379;BME280;32084;42.254;22.744;2023-02-14T00:57:01;96632.59;;;-3.42;74.28
46379;BME280;32084;42.254;22.744;2023-02-14T00:59:27;96640.31;;;-3.72;74.09
46379;BME280;32084;42.254;22.744;2023-02-14T01:01:53;96642.41;;;-3.85;75.68
46379;BME280;32084;42.254;22.744;2023-02-14T01:04:19;96629.84;;;-3.70;75.41
46379;BME280;32084;42.254;22.744;2023-02-14T01:06:46;96637.41;;;-3.60;75.13
46379;BME280;32084;42.254;22.744;2023-02-14T01:09:12;96635.59;;;-3.56;74.99
46379;BME280;32084;42.254;22.744;2023-02-14T01:11:38;96635.28;;;-3.45;74.29
46379;BME280;32084;42.254;22.744;2023-02-14T01:14:04;96635.25;;;-3.44;73.69
46379;BME280;32084;42.254;22.744;2023-02-14T01:16:30;96632.88;;;-3.53;74.08
46379;BME280;32084;42.254;22.744;2023-02-14T01:18:58;96636.16;;;-3.79;74.11
46379;BME280;32084;42.254;22.744;2023-02-14T01:21:26;96630.69;;;-3.70;74.02
46379;BME280;32084;42.254;22.744;2023-02-14T01:23:53;96631.75;;;-3.77;73.84
46379;BME280;32084;42.254;22.744;2023-02-14T01:26:20;96620.38;;;-3.76;73.33
46379;BME280;32084;42.254;22.744;2023-02-14T01:28:46;96627.97;;;-4.01;74.81
46379;BME280;32084;42.254;22.744;2023-02-14T01:31:16;96620.69;;;-3.87;75.09
46379;BME280;32084;42.254;22.744;2023-02-14T01:33:43;96615.38;;;-3.85;74.68
46379;BME280;32084;42.254;22.744;2023-02-14T01:36:19;96609.38;;;-3.89;74.58
46379;BME280;32084;42.254;22.744;2023-02-14T01:38:46;96610.03;;;-4.15;75.07
46379;BME280;32084;42.254;22.744;2023-02-14T01:41:13;96593.75;;;-4.26;76.84
46379;BME280;32084;42.254;22.744;2023-02-14T01:46:35;96604.41;;;-3.98;77.83
46379;BME280;32084;42.254;22.744;2023-02-14T01:51:30;96601.44;;;-3.50;75.40
46379;BME280;32084;42.254;22.744;2023-02-14T01:53:57;96602.75;;;-3.34;75.56
46379;BME280;32084;42.254;22.744;2023-02-14T01:56:28;96600.06;;;-3.32;75.00
46379;BME280;32084;42.254;22.744;2023-02-14T01:58:57;96597.88;;;-3.47;74.82
46379;BME280;32084;42.254;22.744;2023-02-14T02:01:25;96604.94;;;-3.51;74.14
46379;BME280;32084;42.254;22.744;2023-02-14T02:03:55;96603.72;;;-3.72;74.42
46379;BME280;32084;42.254;22.744;2023-02-14T02:06:28;96605.44;;;-3.69;74.98
46379;BME280;32084;42.254;22.744;2023-02-14T02:11:36;96593.34;;;-3.41;74.23
46379;BME280;32084;42.254;22.744;2023-02-14T02:14:03;96599.97;;;-3.60;73.86
46379;BME280;32084;42.254;22.744;2023-02-14T02:40:24;96580.13;;;-3.69;76.03
46379;BME280;32084;42.254;22.744;2023-02-14T02:48:56;96584.38;;;-3.32;75.37
46379;BME280;32084;42.254;22.744;2023-02-14T02:51:38;96583.91;;;-3.46;74.82
46379;BME280;32084;42.254;22.744;2023-02-14T02:54:29;96583.84;;;-3.43;75.60
46379;BME280;32084;42.254;22.744;2023-02-14T02:56:58;96580.50;;;-3.50;75.13
46379;BME280;32084;42.254;22.744;2023-02-14T02:59:27;96577.03;;;-3.50;75.61
46379;BME280;32084;42.254;22.744;2023-02-14T03:04:26;96562.78;;;-3.39;75.87
46379;BME280;32084;42.254;22.744;2023-02-14T03:07:11;96564.75;;;-3.47;76.08
46379;BME280;32084;42.254;22.744;2023-02-14T03:09:57;96558.94;;;-3.58;76.88
46379;BME280;32084;42.254;22.744;2023-02-14T03:17:34;96551.06;;;-3.25;76.23
46379;BME280;32084;42.254;22.744;2023-02-14T03:30:32;96566.84;;;-3.61;76.61
46379;BME280;32084;42.254;22.744;2023-02-14T03:33:04;96580.97;;;-3.68;77.22
46379;BME280;32084;42.254;22.744;2023-02-14T03:35:39;96570.28;;;-3.59;77.64
46379;BME280;32084;42.254;22.744;2023-02-14T03:43:00;96554.88;;;-3.37;75.84
46379;BME280;32084;42.254;22.744;2023-02-14T03:45:31;96561.81;;;-3.36;75.98
46379;BME280;32084;42.254;22.744;2023-02-14T03:47:59;96562.00;;;-3.75;75.10
46379;BME280;32084;42.254;22.744;2023-02-14T03:50:26;96560.06;;;-4.03;75.59
46379;BME280;32084;42.254;22.744;2023-02-14T03:52:53;96552.50;;;-4.14;76.29
46379;BME280;32084;42.254;22.744;2023-02-14T03:55:33;96550.84;;;-4.18;75.50
46379;BME280;32084;42.254;22.744;2023-02-14T03:58:03;96535.59;;;-4.35;77.24
46379;BME280;32084;42.254;22.744;2023-02-14T04:00:31;96542.63;;;-4.38;77.75
46379;BME280;32084;42.254;22.744;2023-02-14T04:03:02;96534.94;;;-4.43;77.93
46379;BME280;32084;42.254;22.744;2023-02-14T04:05:29;96516.88;;;-4.16;77.37
46379;BME280;32084;42.254;22.744;2023-02-14T04:07:56;96511.38;;;-4.05;76.84
46379;BME280;32084;42.254;22.744;2023-02-14T04:10:22;96525.69;;;-4.20;77.07
46379;BME280;32084;42.254;22.744;2023-02-14T04:12:49;96513.25;;;-4.10;75.90
46379;BME280;32084;42.254;22.744;2023-02-14T04:15:15;96499.00;;;-3.99;75.56
46379;BME280;32084;42.254;22.744;2023-02-14T04:17:41;96494.38;;;-3.89;75.19
46379;BME280;32084;42.254;22.744;2023-02-14T04:20:25;96505.09;;;-3.98;75.46
46379;BME280;32084;42.254;22.744;2023-02-14T04:22:52;96523.41;;;-3.98;75.90
46379;BME280;32084;42.254;22.744;2023-02-14T04:25:18;96520.91;;;-4.04;75.91
46379;BME280;32084;42.254;22.744;2023-02-14T04:27:44;96534.88;;;-4.40;75.81
46379;BME280;32084;42.254;22.744;2023-02-14T04:30:11;96538.94;;;-4.65;77.38
46379;BME280;32084;42.254;22.744;2023-02-14T04:32:37;96534.94;;;-4.43;78.25
46379;BME280;32084;42.254;22.744;2023-02-14T04:35:03;96540.81;;;-4.35;78.48
46379;BME280;32084;42.254;22.744;2023-02-14T04:37:30;96542.50;;;-4.32;76.42
46379;BME280;32084;42.254;22.744;2023-02-14T04:39:56;96536.00;;;-4.16;76.68
46379;BME280;32084;42.254;22.744;2023-02-14T04:42:22;96529.78;;;-4.46;74.40
46379;BME280;32084;42.254;22.744;2023-02-14T04:44:48;96536.69;;;-4.82;76.38
46379;BME280;32084;42.254;22.744;2023-02-14T04:47:14;96535.47;;;-4.66;76.63
46379;BME280;32084;42.254;22.744;2023-02-14T04:49:40;96522.72;;;-4.42;76.83
46379;BME280;32084;42.254;22.744;2023-02-14T04:52:06;96526.25;;;-4.43;75.01
46379;BME280;32084;42.254;22.744;2023-02-14T04:54:32;96518.47;;;-4.84;75.32
46379;BME280;32084;42.254;22.744;2023-02-14T04:56:58;96519.38;;;-4.85;75.93
46379;BME280;32084;42.254;22.744;2023-02-14T04:59:24;96524.56;;;-4.83;76.56
46379;BME280;32084;42.254;22.744;2023-02-14T05:01:51;96516.91;;;-4.91;77.42
46379;BME280;32084;42.254;22.744;2023-02-14T05:04:17;96512.88;;;-5.06;78.52
46379;BME280;32084;42.254;22.744;2023-02-14T05:06:43;96524.63;;;-4.86;76.94
46379;BME280;32084;42.254;22.744;2023-02-14T05:09:09;96513.81;;;-4.71;77.35
46379;BME280;32084;42.254;22.744;2023-02-14T05:11:35;96504.81;;;-4.58;76.49
46379;BME280;32084;42.254;22.744;2023-02-14T05:14:01;96496.84;;;-4.52;76.34
46379;BME280;32084;42.254;22.744;2023-02-14T05:16:27;96498.50;;;-4.47;75.81
46379;BME280;32084;42.254;22.744;2023-02-14T05:18:53;96506.94;;;-4.74;75.61
46379;BME280;32084;42.254;22.744;2023-02-14T05:21:19;96502.44;;;-5.06;76.76
46379;BME280;32084;42.254;22.744;2023-02-14T05:23:45;96494.25;;;-4.89;76.39
46379;BME280;32084;42.254;22.744;2023-02-14T05:26:11;96500.13;;;-4.81;76.01
46379;BME280;32084;42.254;22.744;2023-02-14T05:28:37;96499.88;;;-4.68;76.17
46379;BME280;32084;42.254;22.744;2023-02-14T05:31:05;96502.63;;;-4.76;74.88
46379;BME280;32084;42.254;22.744;2023-02-14T05:33:31;96504.78;;;-4.94;75.94
46379;BME280;32084;42.254;22.744;2023-02-14T05:35:58;96507.56;;;-5.03;75.83
46379;BME280;32084;42.254;22.744;2023-02-14T05:38:25;96514.25;;;-4.90;76.05
46379;BME280;32084;42.254;22.744;2023-02-14T05:40:51;96515.16;;;-4.91;75.71
46379;BME280;32084;42.254;22.744;2023-02-14T05:43:17;96511.59;;;-4.88;75.43
46379;BME280;32084;42.254;22.744;2023-02-14T05:45:43;96508.44;;;-4.63;75.28
46379;BME280;32084;42.254;22.744;2023-02-14T05:48:09;96519.88;;;-4.69;73.90
46379;BME280;32084;42.254;22.744;2023-02-14T05:50:35;96515.16;;;-4.91;73.22
46379;BME280;32084;42.254;22.744;2023-02-14T05:53:01;96509.13;;;-4.94;74.31
46379;BME280;32084;42.254;22.744;2023-02-14T05:55:27;96519.28;;;-4.82;74.54
46379;BME280;32084;42.254;22.744;2023-02-14T05:57:53;96508.44;;;-4.63;74.26
46379;BME280;32084;42.254;22.744;2023-02-14T06:00:19;96506.19;;;-4.41;73.95
46379;BME280;32084;42.254;22.744;2023-02-14T06:02:46;96506.03;;;-4.35;73.56
46379;BME280;32084;42.254;22.744;2023-02-14T06:05:12;96514.88;;;-4.06;72.06
46379;BME280;32084;42.254;22.744;2023-02-14T06:07:39;96520.06;;;-3.39;69.45
46379;BME280;32084;42.254;22.744;2023-02-14T06:10:08;96517.09;;;-3.27;70.07
46379;BME280;32084;42.254;22.744;2023-02-14T06:12:34;96519.41;;;-3.16;70.38
46379;BME280;32084;42.254;22.744;2023-02-14T06:15:00;96519.47;;;-2.60;70.56
46379;BME280;32084;42.254;22.744;2023-02-14T06:17:26;96530.38;;;-0.69;64.06
46379;BME280;32084;42.254;22.744;2023-02-14T06:19:52;96540.97;;;1.38;56.85
46379;BME280;32084;42.254;22.744;2023-02-14T06:22:18;96543.53;;;3.17;51.02
46379;BME280;32084;42.254;22.744;2023-02-14T06:24:44;96550.91;;;4.23;47.80
46379;BME280;32084;42.254;22.744;2023-02-14T06:27:11;96546.47;;;4.84;45.84
46379;BME280;32084;42.254;22.744;2023-02-14T06:29:37;96560.72;;;4.37;46.51
46379;BME280;32084;42.254;22.744;2023-02-14T06:32:03;96551.66;;;4.41;46.97
46379;BME280;32084;42.254;22.744;2023-02-14T06:34:32;96542.03;;;4.84;46.36
46379;BME280;32084;42.254;22.744;2023-02-14T06:36:58;96547.53;;;5.53;44.91
46379;BME280;32084;42.254;22.744;2023-02-14T06:39:24;96550.25;;;6.36;43.27
46379;BME280;32084;42.254;22.744;2023-02-14T06:41:50;96549.28;;;6.77;42.32
46379;BME280;32084;42.254;22.744;2023-02-14T06:44:16;96553.00;;;6.75;42.32
46379;BME280;32084;42.254;22.744;2023-02-14T06:46:42;96552.03;;;7.91;42.63
46379;BME280;32084;42.254;22.744;2023-02-14T06:49:09;96560.31;;;8.60;40.58
46379;BME280;32084;42.254;22.744;2023-02-14T06:51:35;96558.34;;;8.87;39.40
46379;BME280;32084;42.254;22.744;2023-02-14T06:54:01;96555.16;;;9.17;39.00
46379;BME280;32084;42.254;22.744;2023-02-14T06:56:27;96562.38;;;9.84;37.63
46379;BME280;32084;42.254;22.744;2023-02-14T06:58:53;96575.78;;;10.50;36.56
46379;BME280;32084;42.254;22.744;2023-02-14T07:01:19;96579.47;;;10.38;36.73
46379;BME280;32084;42.254;22.744;2023-02-14T07:03:45;96574.97;;;10.39;36.09
46379;BME280;32084;42.254;22.744;2023-02-14T07:06:11;96576.00;;;10.04;36.63
46379;BME280;32084;42.254;22.744;2023-02-14T07:08:37;96571.44;;;9.36;37.30
46379;BME280;32084;42.254;22.744;2023-02-14T07:11:03;96568.16;;;7.26;41.10
46379;BME280;32084;42.254;22.744;2023-02-14T07:13:29;96541.81;;;3.81;49.51
46379;BME280;32084;42.254;22.744;2023-02-14T07:15:55;96525.81;;;2.85;53.65
46379;BME280;32084;42.254;22.744;2023-02-14T07:18:23;96505.66;;;2.49;56.47
46379;BME280;32084;42.254;22.744;2023-02-14T07:20:49;96516.19;;;5.60;48.46
46379;BME280;32084;42.254;22.744;2023-02-14T07:23:15;96528.50;;;6.57;45.72
46379;BME280;32084;42.254;22.744;2023-02-14T07:25:41;96527.63;;;6.16;45.72
46379;BME280;32084;42.254;22.744;2023-02-14T07:28:07;96522.66;;;5.97;46.54
46379;BME280;32084;42.254;22.744;2023-02-14T07:30:33;96510.72;;;5.20;48.60
46379;BME280;32084;42.254;22.744;2023-02-14T07:32:59;96506.47;;;3.66;53.20
46379;BME280;32084;42.254;22.744;2023-02-14T07:35:25;96489.38;;;2.74;56.09
46379;BME280;32084;42.254;22.744;2023-02-14T07:37:51;96483.81;;;2.46;58.04
46379;BME280;32084;42.254;22.744;2023-02-14T07:40:18;96473.22;;;2.30;59.66
46379;BME280;32084;42.254;22.744;2023-02-14T07:42:51;96471.41;;;2.48;59.78
46379;BME280;32084;42.254;22.744;2023-02-14T07:45:17;96477.91;;;2.58;58.67
46379;BME280;32084;42.254;22.744;2023-02-14T07:47:43;96473.59;;;2.40;59.35
46379;BME280;32084;42.254;22.744;2023-02-14T07:50:09;96467.28;;;1.90;60.53
46379;BME280;32084;42.254;22.744;2023-02-14T07:52:35;96470.81;;;1.71;61.50
46379;BME280;32084;42.254;22.744;2023-02-14T07:55:01;96464.72;;;1.88;62.12
46379;BME280;32084;42.254;22.744;2023-02-14T07:57:27;96472.13;;;1.63;62.52
46379;BME280;32084;42.254;22.744;2023-02-14T07:59:53;96478.44;;;1.41;63.09
46379;BME280;32084;42.254;22.744;2023-02-14T08:02:19;96475.88;;;1.21;63.58
46379;BME280;32084;42.254;22.744;2023-02-14T08:04:45;96484.56;;;1.23;63.52
46379;BME280;32084;42.254;22.744;2023-02-14T08:07:11;96479.13;;;1.81;63.23
46379;BME280;32084;42.254;22.744;2023-02-14T08:09:37;96472.16;;;2.50;61.78
46379;BME280;32084;42.254;22.744;2023-02-14T08:12:03;96488.53;;;3.07;59.99
46379;BME280;32084;42.254;22.744;2023-02-14T08:14:48;96485.97;;;3.06;58.39
46379;BME280;32084;42.254;22.744;2023-02-14T08:17:14;96486.78;;;2.40;60.08
46379;BME280;32084;42.254;22.744;2023-02-14T08:19:40;96486.38;;;2.12;61.59
46379;BME280;32084;42.254;22.744;2023-02-14T08:22:07;96485.13;;;1.85;61.66
46379;BME280;32084;42.254;22.744;2023-02-14T08:24:33;96484.81;;;1.54;64.00
46379;BME280;32084;42.254;22.744;2023-02-14T08:26:59;96494.59;;;1.33;64.95
46379;BME280;32084;42.254;22.744;2023-02-14T08:29:25;96494.03;;;1.27;66.18
46379;BME280;32084;42.254;22.744;2023-02-14T08:31:51;96492.63;;;1.39;65.04
46379;BME280;32084;42.254;22.744;2023-02-14T08:34:18;96489.25;;;1.35;63.57
46379;BME280;32084;42.254;22.744;2023-02-14T08:36:44;96484.75;;;1.56;64.79
46379;BME280;32084;42.254;22.744;2023-02-14T08:39:10;96488.91;;;1.43;64.60
46379;BME280;32084;42.254;22.744;2023-02-14T08:41:36;96487.53;;;1.15;66.20
46379;BME280;32084;42.254;22.744;2023-02-14T08:44:02;96482.84;;;1.22;65.62
46379;BME280;32084;42.254;22.744;2023-02-14T08:46:28;96475.38;;;1.12;65.71
46379;BME280;32084;42.254;22.744;2023-02-14T08:48:54;96472.50;;;1.17;66.55
46379;BME280;32084;42.254;22.744;2023-02-14T08:51:21;96482.34;;;1.13;65.74
46379;BME280;32084;42.254;22.744;2023-02-14T08:53:50;96487.78;;;1.29;65.75
46379;BME280;32084;42.254;22.744;2023-02-14T08:56:17;96489.09;;;1.19;64.80
46379;BME280;32084;42.254;22.744;2023-02-14T08:58:44;96494.66;;;1.13;65.35
46379;BME280;32084;42.254;22.744;2023-02-14T09:01:11;96489.47;;;1.11;65.64
46379;BME280;32084;42.254;22.744;2023-02-14T09:03:38;96488.97;;;1.22;64.77
46379;BME280;32084;42.254;22.744;2023-02-14T09:06:05;96497.06;;;1.36;64.06
46379;BME280;32084;42.254;22.744;2023-02-14T09:08:31;96492.63;;;1.39;63.82
46379;BME280;32084;42.254;22.744;2023-02-14T09:11:06;96490.47;;;1.47;63.90
46379;BME280;32084;42.254;22.744;2023-02-14T09:13:32;96489.84;;;1.59;63.71
46379;BME280;32084;42.254;22.744;2023-02-14T09:16:01;96496.38;;;1.52;62.42
46379;BME280;32084;42.254;22.744;2023-02-14T09:18:27;96500.56;;;1.56;62.42
46379;BME280;32084;42.254;22.744;2023-02-14T09:20:54;96500.72;;;1.53;63.32
46379;BME280;32084;42.254;22.744;2023-02-14T09:23:20;96493.44;;;1.58;62.77
46379;BME280;32084;42.254;22.744;2023-02-14T09:25:46;96495.53;;;1.69;62.47
46379;BME280;32084;42.254;22.744;2023-02-14T09:28:12;96484.16;;;1.68;62.24
46379;BME280;32084;42.254;22.744;2023-02-14T09:30:38;96486.28;;;1.79;62.76
46379;BME280;32084;42.254;22.744;2023-02-14T09:33:04;96474.91;;;1.96;62.79
46379;BME280;32084;42.254;22.744;2023-02-14T09:35:30;96479.25;;;2.14;63.10
46379;BME280;32084;42.254;22.744;2023-02-14T09:38:15;96472.72;;;2.04;62.13
46379;BME280;32084;42.254;22.744;2023-02-14T09:40:42;96464.03;;;2.20;62.61
46379;BME280;32084;42.254;22.744;2023-02-14T09:43:15;96462.88;;;2.25;62.44
46379;BME280;32084;42.254;22.744;2023-02-14T09:45:49;96465.56;;;2.24;62.44
46379;BME280;32084;42.254;22.744;2023-02-14T09:48:28;96461.00;;;2.45;61.73
46379;BME280;32084;42.254;22.744;2023-02-14T09:51:03;96459.06;;;2.82;60.76
46379;BME280;32084;42.254;22.744;2023-02-14T09:54:05;96454.06;;;2.93;60.20
46379;BME280;32084;42.254;22.744;2023-02-14T10:11:32;96436.97;;;3.48;59.63
46379;BME280;32084;42.254;22.744;2023-02-14T10:14:03;96428.06;;;3.49;59.32
46379;BME280;32084;42.254;22.744;2023-02-14T10:19:03;96420.06;;;3.50;58.93
46379;BME280;32084;42.254;22.744;2023-02-14T10:21:37;96416.94;;;3.44;58.94
46379;BME280;32084;42.254;22.744;2023-02-14T10:24:16;96421.59;;;3.55;59.42
46379;BME280;32084;42.254;22.744;2023-02-14T10:26:44;96425.19;;;3.54;58.73
46379;BME280;32084;42.254;22.744;2023-02-14T10:29:13;96417.41;;;3.66;58.79
46379;BME280;32084;42.254;22.744;2023-02-14T10:31:49;96417.56;;;3.63;59.59
46379;BME280;32084;42.254;22.744;2023-02-14T10:42:18;96395.22;;;3.99;59.07
46379;BME280;32084;42.254;22.744;2023-02-14T10:44:53;96393.00;;;4.36;58.45
46379;BME280;32084;42.254;22.744;2023-02-14T10:50:24;96383.00;;;4.70;56.60
46379;BME280;32084;42.254;22.744;2023-02-14T10:55:38;96378.56;;;4.85;58.04
46379;BME280;32084;42.254;22.744;2023-02-14T10:58:08;96374.84;;;5.16;56.98
46379;BME280;32084;42.254;22.744;2023-02-14T11:00:37;96370.25;;;5.60;55.94
46379;BME280;32084;42.254;22.744;2023-02-14T11:03:06;96377.56;;;5.56;56.34
46379;BME280;32084;42.254;22.744;2023-02-14T11:08:11;96375.28;;;5.50;56.48
46379;BME280;32084;42.254;22.744;2023-02-14T11:10:38;96374.69;;;5.59;56.59
46379;BME280;32084;42.254;22.744;2023-02-14T11:13:25;96365.78;;;5.33;57.06
46379;BME280;32084;42.254;22.744;2023-02-14T11:15:50;96377.84;;;5.52;56.78
46379;BME280;32084;42.254;22.744;2023-02-14T11:18:23;96371.19;;;5.59;56.88
46379;BME280;32084;42.254;22.744;2023-02-14T11:20:57;96369.88;;;5.52;56.60
46379;BME280;32084;42.254;22.744;2023-02-14T11:23:24;96371.00;;;5.62;56.46
46379;BME280;32084;42.254;22.744;2023-02-14T11:25:51;96367.22;;;6.32;54.13
46379;BME280;32084;42.254;22.744;2023-02-14T11:28:18;96365.88;;;6.26;53.87
46379;BME280;32084;42.254;22.744;2023-02-14T11:30:45;96367.44;;;6.16;55.22
46379;BME280;32084;42.254;22.744;2023-02-14T11:33:21;96366.41;;;6.70;53.70
46379;BME280;32084;42.254;22.744;2023-02-14T11:35:51;96369.00;;;6.95;52.90
46379;BME280;32084;42.254;22.744;2023-02-14T11:38:26;96350.75;;;6.78;52.96
46379;BME280;32084;42.254;22.744;2023-02-14T11:40:53;96355.88;;;6.68;53.28
46379;BME280;32084;42.254;22.744;2023-02-14T11:43:28;96360.13;;;6.71;53.43
46379;BME280;32084;42.254;22.744;2023-02-14T11:48:30;96351.50;;;6.67;53.79
46379;BME280;32084;42.254;22.744;2023-02-14T11:51:11;96348.53;;;6.59;54.06
46379;BME280;32084;42.254;22.744;2023-02-14T11:53:47;96339.88;;;6.94;52.73
46379;BME280;32084;42.254;22.744;2023-02-14T11:56:14;96338.41;;;6.90;53.04
46379;BME280;32084;42.254;22.744;2023-02-14T12:01:27;96320.59;;;6.40;53.37
46379;BME280;32084;42.254;22.744;2023-02-14T12:03:57;96322.31;;;6.41;53.95
46379;BME280;32084;42.254;22.744;2023-02-14T12:06:24;96325.06;;;6.40;53.79
46379;BME280;32084;42.254;22.744;2023-02-14T12:08:52;96321.00;;;6.09;54.13
46379;BME280;32084;42.254;22.744;2023-02-14T12:11:34;96316.25;;;6.27;54.55
46379;BME280;32084;42.254;22.744;2023-02-14T12:14:00;96320.28;;;6.32;54.42
46379;BME280;32084;42.254;22.744;2023-02-14T12:22:28;96316.53;;;6.22;54.89
46379;BME280;32084;42.254;22.744;2023-02-14T12:24:58;96318.28;;;6.36;54.60
46379;BME280;32084;42.254;22.744;2023-02-14T12:27:26;96317.63;;;6.45;54.33
46379;BME280;32084;42.254;22.744;2023-02-14T12:30:28;96319.41;;;6.44;54.00
46379;BME280;32084;42.254;22.744;2023-02-14T12:32:50;96312.84;;;6.24;54.56
46379;BME280;32084;42.254;22.744;2023-02-14T12:35:18;96297.84;;;6.11;54.86
46379;BME280;32084;42.254;22.744;2023-02-14T12:38:05;96296.16;;;6.10;55.18
46379;BME280;32084;42.254;22.744;2023-02-14T12:51:44;96296.81;;;6.26;54.44
46379;BME280;32084;42.254;22.744;2023-02-14T12:53:54;96284.13;;;6.42;53.81
46379;BME280;32084;42.254;22.744;2023-02-14T12:58:55;96284.03;;;6.31;54.35
46379;BME280;32084;42.254;22.744;2023-02-14T13:01:28;96274.78;;;6.37;54.21
46379;BME280;32084;42.254;22.744;2023-02-14T13:06:47;96264.50;;;6.32;54.54
46379;BME280;32084;42.254;22.744;2023-02-14T13:09:22;96255.56;;;6.33;54.33
46379;BME280;32084;42.254;22.744;2023-02-14T13:11:56;96258.53;;;6.41;54.13
46379;BME280;32084;42.254;22.744;2023-02-14T13:16:54;96270.13;;;6.40;53.85
46379;BME280;32084;42.254;22.744;2023-02-14T13:21:50;96267.78;;;6.23;53.80
46379;BME280;32084;42.254;22.744;2023-02-14T13:24:18;96266.94;;;6.10;54.15
46379;BME280;32084;42.254;22.744;2023-02-14T13:26:46;96266.84;;;6.11;53.99
46379;BME280;32084;42.254;22.744;2023-02-14T13:29:17;96264.94;;;6.13;53.88
46379;BME280;32084;42.254;22.744;2023-02-14T13:31:44;96278.22;;;6.00;54.30
46379;BME280;32084;42.254;22.744;2023-02-14T13:36:45;96259.94;;;5.96;54.21
46379;BME280;32084;42.254;22.744;2023-02-14T13:39:16;96268.53;;;5.99;54.03
46379;BME280;32084;42.254;22.744;2023-02-14T13:41:45;96269.41;;;6.00;54.38
46379;BME280;32084;42.254;22.744;2023-02-14T13:44:11;96269.38;;;6.13;53.80
46379;BME280;32084;42.254;22.744;2023-02-14T13:46:57;96266.22;;;6.08;53.78
46379;BME280;32084;42.254;22.744;2023-02-14T13:51:50;96261.75;;;6.08;53.78
46379;BME280;32084;42.254;22.744;2023-02-14T13:56:47;96276.72;;;5.96;54.16
46379;BME280;32084;42.254;22.744;2023-02-14T14:01:51;96272.94;;;5.86;54.44
46379;BME280;32084;42.254;22.744;2023-02-14T14:15:08;96256.91;;;5.87;54.25
46379;BME280;32084;42.254;22.744;2023-02-14T14:17:37;96257.56;;;5.91;54.39
46379;BME280;32084;42.254;22.744;2023-02-14T14:22:49;96243.66;;;5.87;54.64
46379;BME280;32084;42.254;22.744;2023-02-14T14:28:03;96251.41;;;5.91;54.60
46379;BME280;32084;42.254;22.744;2023-02-14T14:30:34;96254.72;;;5.94;54.69
46379;BME280;32084;42.254;22.744;2023-02-14T14:35:59;96255.34;;;5.85;54.91
46379;BME280;32084;42.254;22.744;2023-02-14T14:38:31;96256.72;;;5.91;54.80
46379;BME280;32084;42.254;22.744;2023-02-14T14:40:58;96260.78;;;5.96;54.96
46379;BME280;32084;42.254;22.744;2023-02-14T14:45:50;96263.19;;;5.86;54.97
46379;BME280;32084;42.254;22.744;2023-02-14T14:48:24;96270.41;;;5.84;54.94
46379;BME280;32084;42.254;22.744;2023-02-14T14:50:51;96264.56;;;5.79;55.17
46379;BME280;32084;42.254;22.744;2023-02-14T14:54:00;96262.09;;;5.76;55.20
46379;BME280;32084;42.254;22.744;2023-02-14T14:56:25;96263.72;;;5.79;55.11
46379;BME280;32084;42.254;22.744;2023-02-14T14:58:51;96270.63;;;5.81;55.13
46379;BME280;32084;42.254;22.744;2023-02-14T15:01:36;96267.63;;;5.86;55.01
46379;BME280;32084;42.254;22.744;2023-02-14T15:04:10;96272.53;;;5.79;54.98
46379;BME280;32084;42.254;22.744;2023-02-14T15:06:37;96267.97;;;5.81;55.17
46379;BME280;32084;42.254;22.744;2023-02-14T15:09:13;96263.28;;;5.85;54.96
46379;BME280;32084;42.254;22.744;2023-02-14T15:11:40;96265.94;;;5.85;55.15
46379;BME280;32084;42.254;22.744;2023-02-14T15:14:26;96264.25;;;5.84;55.16
46379;BME280;32084;42.254;22.744;2023-02-14T15:16:54;96265.94;;;5.85;55.01
46379;BME280;32084;42.254;22.744;2023-02-14T15:19:24;96258.00;;;5.85;54.97
46379;BME280;32084;42.254;22.744;2023-02-14T15:21:58;96257.66;;;5.77;55.14
46379;BME280;32084;42.254;22.744;2023-02-14T15:24:24;96255.75;;;5.79;54.92
46379;BME280;32084;42.254;22.744;2023-02-14T15:26:51;96266.25;;;5.67;55.33
46379;BME280;32084;42.254;22.744;2023-02-14T15:31:47;96248.16;;;5.47;56.01
46379;BME280;32084;42.254;22.744;2023-02-14T15:34:14;96252.41;;;5.50;56.01
46379;BME280;32084;42.254;22.744;2023-02-14T15:36:40;96258.38;;;5.53;55.86
46379;BME280;32084;42.254;22.744;2023-02-14T15:39:06;96268.00;;;5.41;56.12
46379;BME280;32084;42.254;22.744;2023-02-14T15:41:34;96260.47;;;5.35;56.64
46379;BME280;32084;42.254;22.744;2023-02-14T15:44:00;96262.03;;;5.38;56.85